sensor_id;sensor_type;location;lat;lon;timestamp;P1;durP1;ratioP1;P2;durP2;ratioP2
37459;SDS011;23318;50.966;5.284;2023-03-15T00:00:43;25.25;;;5.80;;
37459;SDS011;23318;50.966;5.284;2023-03-15T00:03:09;16.33;;;6.03;;
37459;SDS011;23318;50.966;5.284;2023-03-15T00:05:36;15.43;;;5.97;;
37459;SDS011;23318;50.966;5.284;2023-03-15T00:08:05;12.93;;;5.00;;
37459;SDS011;23318;50.966;5.284;2023-03-15T00:10:31;17.23;;;6.32;;
37459;SDS011;23318;50.966;5.284;2023-03-15T00:12:56;14.60;;;5.60;;
37459;SDS011;23318;50.966;5.284;2023-03-15T00:15:22;20.85;;;6.18;;
37459;SDS011;23318;50.966;5.284;2023-03-15T00:17:48;10.05;;;4.45;;
37459;SDS011;23318;50.966;5.284;2023-03-15T00:20:13;13.65;;;5.35;;
37459;SDS011;23318;50.966;5.284;2023-03-15T00:22:39;14.55;;;5.25;;
37459;SDS011;23318;50.966;5.284;2023-03-15T00:25:06;11.48;;;4.88;;
37459;SDS011;23318;50.966;5.284;2023-03-15T00:27:32;12.20;;;4.28;;
37459;SDS011;23318;50.966;5.284;2023-03-15T00:29:58;19.20;;;5.43;;
37459;SDS011;23318;50.966;5.284;2023-03-15T00:32:23;10.55;;;4.65;;
37459;SDS011;23318;50.966;5.284;2023-03-15T00:34:49;12.85;;;4.53;;
37459;SDS011;23318;50.966;5.284;2023-03-15T00:37:18;12.75;;;4.40;;
37459;SDS011;23318;50.966;5.284;2023-03-15T00:39:45;7.72;;;3.47;;
37459;SDS011;23318;50.966;5.284;2023-03-15T00:42:12;11.45;;;4.32;;
37459;SDS011;23318;50.966;5.284;2023-03-15T00:44:44;7.70;;;3.28;;
37459;SDS011;23318;50.966;5.284;2023-03-15T00:47:10;7.25;;;3.40;;
37459;SDS011;23318;50.966;5.284;2023-03-15T00:49:37;9.18;;;3.50;;
37459;SDS011;23318;50.966;5.284;2023-03-15T00:52:03;8.25;;;3.40;;
37459;SDS011;23318;50.966;5.284;2023-03-15T00:54:30;9.10;;;3.83;;
37459;SDS011;23318;50.966;5.284;2023-03-15T00:56:59;6.97;;;3.72;;
37459;SDS011;23318;50.966;5.284;2023-03-15T00:59:26;17.42;;;4.32;;
37459;SDS011;23318;50.966;5.284;2023-03-15T01:01:53;9.00;;;3.92;;
37459;SDS011;23318;50.966;5.284;2023-03-15T01:04:19;10.93;;;4.47;;
37459;SDS011;23318;50.966;5.284;2023-03-15T01:06:45;11.00;;;4.45;;
37459;SDS011;23318;50.966;5.284;2023-03-15T01:09:10;8.55;;;5.03;;
37459;SDS011;23318;50.966;5.284;2023-03-15T01:11:36;6.70;;;4.05;;
37459;SDS011;23318;50.966;5.284;2023-03-15T01:14:02;13.27;;;4.63;;
37459;SDS011;23318;50.966;5.284;2023-03-15T01:16:29;10.65;;;5.00;;
37459;SDS011;23318;50.966;5.284;2023-03-15T01:18:55;9.55;;;4.50;;
37459;SDS011;23318;50.966;5.284;2023-03-15T01:21:22;10.45;;;4.53;;
37459;SDS011;23318;50.966;5.284;2023-03-15T01:23:49;14.50;;;4.63;;
37459;SDS011;23318;50.966;5.284;2023-03-15T01:26:15;6.28;;;4.32;;
37459;SDS011;23318;50.966;5.284;2023-03-15T01:28:41;8.35;;;3.88;;
37459;SDS011;23318;50.966;5.284;2023-03-15T01:31:41;10.23;;;3.67;;
37459;SDS011;23318;50.966;5.284;2023-03-15T01:33:59;11.80;;;3.88;;
37459;SDS011;23318;50.966;5.284;2023-03-15T01:36:25;9.48;;;3.90;;
37459;SDS011;23318;50.966;5.284;2023-03-15T01:38:51;7.25;;;3.50;;
37459;SDS011;23318;50.966;5.284;2023-03-15T01:41:18;5.97;;;3.78;;
37459;SDS011;23318;50.966;5.284;2023-03-15T01:43:45;5.70;;;3.22;;
37459;SDS011;23318;50.966;5.284;2023-03-15T01:46:26;6.85;;;3.33;;
37459;SDS011;23318;50.966;5.284;2023-03-15T01:48:54;4.10;;;2.67;;
37459;SDS011;23318;50.966;5.284;2023-03-15T01:57:07;6.88;;;3.00;;
37459;SDS011;23318;50.966;5.284;2023-03-15T01:59:39;3.50;;;2.45;;
37459;SDS011;23318;50.966;5.284;2023-03-15T02:02:15;4.78;;;3.13;;
37459;SDS011;23318;50.966;5.284;2023-03-15T02:04:45;5.78;;;2.88;;
37459;SDS011;23318;50.966;5.284;2023-03-15T02:07:15;5.75;;;2.80;;
37459;SDS011;23318;50.966;5.284;2023-03-15T02:10:07;4.40;;;2.58;;
37459;SDS011;23318;50.966;5.284;2023-03-15T02:12:37;4.57;;;2.83;;
37459;SDS011;23318;50.966;5.284;2023-03-15T02:15:07;10.70;;;3.17;;
37459;SDS011;23318;50.966;5.284;2023-03-15T02:17:39;4.75;;;2.22;;
37459;SDS011;23318;50.966;5.284;2023-03-15T02:22:55;5.60;;;2.80;;
37459;SDS011;23318;50.966;5.284;2023-03-15T02:28:11;7.43;;;3.00;;
37459;SDS011;23318;50.966;5.284;2023-03-15T02:30:38;4.57;;;2.75;;
37459;SDS011;23318;50.966;5.284;2023-03-15T02:33:06;4.65;;;2.95;;
37459;SDS011;23318;50.966;5.284;2023-03-15T02:35:39;3.97;;;3.13;;
37459;SDS011;23318;50.966;5.284;2023-03-15T02:38:04;3.08;;;2.53;;
37459;SDS011;23318;50.966;5.284;2023-03-15T02:40:30;7.28;;;3.10;;
37459;SDS011;23318;50.966;5.284;2023-03-15T02:42:58;3.03;;;2.60;;
37459;SDS011;23318;50.966;5.284;2023-03-15T02:45:27;5.75;;;2.80;;
37459;SDS011;23318;50.966;5.284;2023-03-15T02:47:56;5.00;;;2.70;;
37459;SDS011;23318;50.966;5.284;2023-03-15T02:50:23;4.65;;;2.55;;
37459;SDS011;23318;50.966;5.284;2023-03-15T02:52:48;4.53;;;2.72;;
37459;SDS011;23318;50.966;5.284;2023-03-15T02:55:16;4.40;;;3.03;;
37459;SDS011;23318;50.966;5.284;2023-03-15T02:57:43;3.95;;;2.72;;
37459;SDS011;23318;50.966;5.284;2023-03-15T03:00:09;5.75;;;2.65;;
37459;SDS011;23318;50.966;5.284;2023-03-15T03:02:42;4.95;;;2.88;;
37459;SDS011;23318;50.966;5.284;2023-03-15T03:05:11;3.95;;;2.63;;
37459;SDS011;23318;50.966;5.284;2023-03-15T03:07:38;4.63;;;2.75;;
37459;SDS011;23318;50.966;5.284;2023-03-15T03:10:07;6.57;;;3.30;;
37459;SDS011;23318;50.966;5.284;2023-03-15T03:12:34;4.55;;;2.78;;
37459;SDS011;23318;50.966;5.284;2023-03-15T03:15:00;9.43;;;3.88;;
37459;SDS011;23318;50.966;5.284;2023-03-15T03:17:27;6.00;;;3.13;;
37459;SDS011;23318;50.966;5.284;2023-03-15T03:19:53;7.63;;;3.47;;
37459;SDS011;23318;50.966;5.284;2023-03-15T03:22:19;6.82;;;3.28;;
37459;SDS011;23318;50.966;5.284;2023-03-15T03:24:49;5.00;;;3.38;;
37459;SDS011;23318;50.966;5.284;2023-03-15T03:27:15;9.60;;;3.53;;
37459;SDS011;23318;50.966;5.284;2023-03-15T03:29:41;7.32;;;3.22;;
37459;SDS011;23318;50.966;5.284;2023-03-15T03:32:07;9.65;;;3.40;;
37459;SDS011;23318;50.966;5.284;2023-03-15T03:34:34;12.32;;;3.75;;
37459;SDS011;23318;50.966;5.284;2023-03-15T03:37:00;6.78;;;3.40;;
37459;SDS011;23318;50.966;5.284;2023-03-15T03:39:26;7.97;;;3.28;;
37459;SDS011;23318;50.966;5.284;2023-03-15T03:41:52;7.03;;;3.78;;
37459;SDS011;23318;50.966;5.284;2023-03-15T03:44:18;8.10;;;3.83;;
37459;SDS011;23318;50.966;5.284;2023-03-15T03:46:44;11.30;;;4.43;;
37459;SDS011;23318;50.966;5.284;2023-03-15T03:49:10;8.70;;;3.55;;
37459;SDS011;23318;50.966;5.284;2023-03-15T03:51:35;7.38;;;4.25;;
37459;SDS011;23318;50.966;5.284;2023-03-15T03:54:02;7.45;;;3.20;;
37459;SDS011;23318;50.966;5.284;2023-03-15T03:56:28;6.88;;;2.83;;
37459;SDS011;23318;50.966;5.284;2023-03-15T03:58:55;7.00;;;3.50;;
37459;SDS011;23318;50.966;5.284;2023-03-15T04:01:21;9.68;;;2.90;;
37459;SDS011;23318;50.966;5.284;2023-03-15T04:03:49;6.15;;;3.15;;
37459;SDS011;23318;50.966;5.284;2023-03-15T04:06:16;5.00;;;2.65;;
37459;SDS011;23318;50.966;5.284;2023-03-15T04:08:42;4.28;;;2.22;;
37459;SDS011;23318;50.966;5.284;2023-03-15T04:11:07;6.03;;;2.88;;
37459;SDS011;23318;50.966;5.284;2023-03-15T04:13:33;4.85;;;2.30;;
37459;SDS011;23318;50.966;5.284;2023-03-15T04:15:59;4.40;;;2.58;;
37459;SDS011;23318;50.966;5.284;2023-03-15T04:18:27;6.07;;;3.53;;
37459;SDS011;23318;50.966;5.284;2023-03-15T04:20:52;6.93;;;2.80;;
37459;SDS011;23318;50.966;5.284;2023-03-15T04:23:19;4.25;;;2.72;;
37459;SDS011;23318;50.966;5.284;2023-03-15T04:25:48;6.22;;;2.72;;
37459;SDS011;23318;50.966;5.284;2023-03-15T04:28:15;3.42;;;2.80;;
37459;SDS011;23318;50.966;5.284;2023-03-15T04:30:41;5.10;;;2.80;;
37459;SDS011;23318;50.966;5.284;2023-03-15T04:33:08;5.70;;;3.13;;
37459;SDS011;23318;50.966;5.284;2023-03-15T04:35:35;6.93;;;2.83;;
37459;SDS011;23318;50.966;5.284;2023-03-15T04:38:03;6.85;;;3.53;;
37459;SDS011;23318;50.966;5.284;2023-03-15T04:40:29;6.53;;;3.70;;
37459;SDS011;23318;50.966;5.284;2023-03-15T04:42:59;7.50;;;4.28;;
37459;SDS011;23318;50.966;5.284;2023-03-15T04:45:27;7.75;;;4.72;;
37459;SDS011;23318;50.966;5.284;2023-03-15T04:47:54;8.15;;;5.40;;
37459;SDS011;23318;50.966;5.284;2023-03-15T04:50:20;11.00;;;6.45;;
37459;SDS011;23318;50.966;5.284;2023-03-15T04:52:47;12.88;;;6.95;;
37459;SDS011;23318;50.966;5.284;2023-03-15T04:55:13;11.82;;;6.72;;
37459;SDS011;23318;50.966;5.284;2023-03-15T04:57:39;9.63;;;6.32;;
37459;SDS011;23318;50.966;5.284;2023-03-15T05:00:06;9.52;;;6.55;;
37459;SDS011;23318;50.966;5.284;2023-03-15T05:02:36;16.40;;;7.80;;
37459;SDS011;23318;50.966;5.284;2023-03-15T05:05:05;11.45;;;7.13;;
37459;SDS011;23318;50.966;5.284;2023-03-15T05:07:33;6.93;;;5.78;;
37459;SDS011;23318;50.966;5.284;2023-03-15T05:10:00;13.68;;;6.78;;
37459;SDS011;23318;50.966;5.284;2023-03-15T05:12:26;6.95;;;5.38;;
37459;SDS011;23318;50.966;5.284;2023-03-15T05:14:52;8.98;;;4.93;;
37459;SDS011;23318;50.966;5.284;2023-03-15T05:17:17;8.27;;;5.70;;
37459;SDS011;23318;50.966;5.284;2023-03-15T05:19:44;8.50;;;5.20;;
37459;SDS011;23318;50.966;5.284;2023-03-15T05:22:10;6.93;;;5.18;;
37459;SDS011;23318;50.966;5.284;2023-03-15T05:24:36;6.07;;;5.30;;
37459;SDS011;23318;50.966;5.284;2023-03-15T05:27:01;5.35;;;4.82;;
37459;SDS011;23318;50.966;5.284;2023-03-15T05:29:28;9.70;;;5.25;;
37459;SDS011;23318;50.966;5.284;2023-03-15T05:31:54;7.07;;;4.95;;
37459;SDS011;23318;50.966;5.284;2023-03-15T05:34:20;13.50;;;5.55;;
37459;SDS011;23318;50.966;5.284;2023-03-15T05:36:48;9.23;;;5.80;;
37459;SDS011;23318;50.966;5.284;2023-03-15T05:39:15;9.82;;;5.95;;
37459;SDS011;23318;50.966;5.284;2023-03-15T05:41:41;14.15;;;6.57;;
37459;SDS011;23318;50.966;5.284;2023-03-15T05:44:07;20.02;;;9.13;;
37459;SDS011;23318;50.966;5.284;2023-03-15T05:46:34;15.40;;;9.30;;
37459;SDS011;23318;50.966;5.284;2023-03-15T05:48:59;21.02;;;10.73;;
37459;SDS011;23318;50.966;5.284;2023-03-15T05:51:25;17.65;;;10.73;;
37459;SDS011;23318;50.966;5.284;2023-03-15T05:53:51;23.73;;;12.25;;
37459;SDS011;23318;50.966;5.284;2023-03-15T05:56:16;24.50;;;11.15;;
37459;SDS011;23318;50.966;5.284;2023-03-15T05:58:42;20.63;;;11.95;;
37459;SDS011;23318;50.966;5.284;2023-03-15T06:01:07;22.88;;;13.50;;
37459;SDS011;23318;50.966;5.284;2023-03-15T06:03:33;23.58;;;13.65;;
37459;SDS011;23318;50.966;5.284;2023-03-15T06:05:59;30.10;;;14.43;;
37459;SDS011;23318;50.966;5.284;2023-03-15T06:08:25;21.42;;;14.00;;
37459;SDS011;23318;50.966;5.284;2023-03-15T06:10:51;25.30;;;16.33;;
37459;SDS011;23318;50.966;5.284;2023-03-15T06:13:17;28.23;;;15.95;;
37459;SDS011;23318;50.966;5.284;2023-03-15T06:15:44;30.23;;;17.83;;
37459;SDS011;23318;50.966;5.284;2023-03-15T06:18:11;31.50;;;18.15;;
37459;SDS011;23318;50.966;5.284;2023-03-15T06:20:38;32.58;;;18.25;;
37459;SDS011;23318;50.966;5.284;2023-03-15T06:23:04;40.92;;;19.15;;
37459;SDS011;23318;50.966;5.284;2023-03-15T06:25:30;35.47;;;17.65;;
37459;SDS011;23318;50.966;5.284;2023-03-15T06:27:56;40.42;;;19.05;;
37459;SDS011;23318;50.966;5.284;2023-03-15T06:30:21;54.65;;;20.00;;
37459;SDS011;23318;50.966;5.284;2023-03-15T06:32:47;59.08;;;20.55;;
37459;SDS011;23318;50.966;5.284;2023-03-15T06:35:13;69.57;;;22.92;;
37459;SDS011;23318;50.966;5.284;2023-03-15T06:37:39;71.18;;;25.02;;
37459;SDS011;23318;50.966;5.284;2023-03-15T06:40:06;103.13;;;28.75;;
37459;SDS011;23318;50.966;5.284;2023-03-15T06:42:33;82.75;;;25.30;;
37459;SDS011;23318;50.966;5.284;2023-03-15T06:44:58;76.90;;;25.40;;
37459;SDS011;23318;50.966;5.284;2023-03-15T06:47:25;49.03;;;23.92;;
37459;SDS011;23318;50.966;5.284;2023-03-15T06:49:51;49.05;;;21.67;;
37459;SDS011;23318;50.966;5.284;2023-03-15T06:52:16;41.95;;;20.55;;
37459;SDS011;23318;50.966;5.284;2023-03-15T06:54:43;40.00;;;20.75;;
37459;SDS011;23318;50.966;5.284;2023-03-15T06:57:08;36.85;;;20.45;;
37459;SDS011;23318;50.966;5.284;2023-03-15T06:59:34;42.22;;;20.45;;
37459;SDS011;23318;50.966;5.284;2023-03-15T07:02:00;41.80;;;22.67;;
37459;SDS011;23318;50.966;5.284;2023-03-15T07:04:25;41.78;;;21.83;;
37459;SDS011;23318;50.966;5.284;2023-03-15T07:06:51;40.90;;;23.35;;
37459;SDS011;23318;50.966;5.284;2023-03-15T07:09:18;37.65;;;22.30;;
37459;SDS011;23318;50.966;5.284;2023-03-15T07:11:43;41.72;;;23.60;;
37459;SDS011;23318;50.966;5.284;2023-03-15T07:14:09;36.78;;;22.25;;
37459;SDS011;23318;50.966;5.284;2023-03-15T07:16:35;42.95;;;23.33;;
37459;SDS011;23318;50.966;5.284;2023-03-15T07:19:01;47.50;;;24.23;;
37459;SDS011;23318;50.966;5.284;2023-03-15T07:21:27;42.20;;;24.38;;
37459;SDS011;23318;50.966;5.284;2023-03-15T07:23:53;43.95;;;23.98;;
37459;SDS011;23318;50.966;5.284;2023-03-15T07:26:19;37.83;;;23.60;;
37459;SDS011;23318;50.966;5.284;2023-03-15T07:28:45;40.28;;;23.55;;
37459;SDS011;23318;50.966;5.284;2023-03-15T07:31:11;37.45;;;23.98;;
37459;SDS011;23318;50.966;5.284;2023-03-15T07:33:37;40.58;;;24.88;;
37459;SDS011;23318;50.966;5.284;2023-03-15T07:36:04;43.15;;;25.10;;
37459;SDS011;23318;50.966;5.284;2023-03-15T07:38:31;43.35;;;24.45;;
37459;SDS011;23318;50.966;5.284;2023-03-15T07:41:00;42.47;;;25.05;;
37459;SDS011;23318;50.966;5.284;2023-03-15T07:43:26;47.00;;;27.35;;
37459;SDS011;23318;50.966;5.284;2023-03-15T07:45:53;41.58;;;26.65;;
37459;SDS011;23318;50.966;5.284;2023-03-15T07:48:19;43.65;;;27.70;;
37459;SDS011;23318;50.966;5.284;2023-03-15T07:50:45;43.03;;;27.65;;
37459;SDS011;23318;50.966;5.284;2023-03-15T07:53:10;49.60;;;29.63;;
37459;SDS011;23318;50.966;5.284;2023-03-15T07:55:36;44.25;;;27.42;;
37459;SDS011;23318;50.966;5.284;2023-03-15T07:58:02;54.58;;;30.92;;
37459;SDS011;23318;50.966;5.284;2023-03-15T08:00:28;46.20;;;29.83;;
37459;SDS011;23318;50.966;5.284;2023-03-15T08:02:54;44.40;;;29.70;;
37459;SDS011;23318;50.966;5.284;2023-03-15T08:05:19;47.70;;;29.13;;
37459;SDS011;23318;50.966;5.284;2023-03-15T08:07:49;52.80;;;32.17;;
37459;SDS011;23318;50.966;5.284;2023-03-15T08:10:15;50.67;;;28.63;;
37459;SDS011;23318;50.966;5.284;2023-03-15T08:12:41;47.05;;;28.20;;
37459;SDS011;23318;50.966;5.284;2023-03-15T08:15:14;45.63;;;28.23;;
37459;SDS011;23318;50.966;5.284;2023-03-15T08:17:41;49.13;;;29.20;;
37459;SDS011;23318;50.966;5.284;2023-03-15T08:20:08;49.35;;;29.02;;
37459;SDS011;23318;50.966;5.284;2023-03-15T08:22:41;43.10;;;26.65;;
37459;SDS011;23318;50.966;5.284;2023-03-15T08:25:11;47.97;;;28.52;;
37459;SDS011;23318;50.966;5.284;2023-03-15T08:27:39;37.53;;;21.67;;
37459;SDS011;23318;50.966;5.284;2023-03-15T08:30:06;34.10;;;19.92;;
37459;SDS011;23318;50.966;5.284;2023-03-15T08:32:32;34.55;;;22.48;;
37459;SDS011;23318;50.966;5.284;2023-03-15T08:34:58;38.20;;;21.83;;
37459;SDS011;23318;50.966;5.284;2023-03-15T08:37:24;29.98;;;20.58;;
37459;SDS011;23318;50.966;5.284;2023-03-15T08:39:50;32.05;;;19.23;;
37459;SDS011;23318;50.966;5.284;2023-03-15T08:42:25;29.73;;;18.10;;
37459;SDS011;23318;50.966;5.284;2023-03-15T08:44:51;21.63;;;13.20;;
37459;SDS011;23318;50.966;5.284;2023-03-15T08:47:17;15.65;;;10.52;;
37459;SDS011;23318;50.966;5.284;2023-03-15T08:49:43;27.50;;;13.93;;
37459;SDS011;23318;50.966;5.284;2023-03-15T08:52:08;20.55;;;13.85;;
37459;SDS011;23318;50.966;5.284;2023-03-15T08:54:34;22.17;;;13.40;;
37459;SDS011;23318;50.966;5.284;2023-03-15T08:57:00;19.55;;;13.55;;
37459;SDS011;23318;50.966;5.284;2023-03-15T08:59:26;20.48;;;14.32;;
37459;SDS011;23318;50.966;5.284;2023-03-15T09:01:51;26.15;;;14.00;;
37459;SDS011;23318;50.966;5.284;2023-03-15T09:04:17;17.63;;;9.82;;
37459;SDS011;23318;50.966;5.284;2023-03-15T09:06:43;17.55;;;9.35;;
37459;SDS011;23318;50.966;5.284;2023-03-15T09:09:09;18.90;;;9.75;;
37459;SDS011;23318;50.966;5.284;2023-03-15T09:11:35;21.30;;;11.35;;
37459;SDS011;23318;50.966;5.284;2023-03-15T09:14:01;15.52;;;9.65;;
37459;SDS011;23318;50.966;5.284;2023-03-15T09:16:27;12.75;;;7.22;;
37459;SDS011;23318;50.966;5.284;2023-03-15T09:18:52;13.10;;;7.05;;
37459;SDS011;23318;50.966;5.284;2023-03-15T09:21:18;13.45;;;7.25;;
37459;SDS011;23318;50.966;5.284;2023-03-15T09:23:44;10.38;;;7.47;;
37459;SDS011;23318;50.966;5.284;2023-03-15T09:26:09;10.13;;;4.65;;
37459;SDS011;23318;50.966;5.284;2023-03-15T09:28:35;11.98;;;6.00;;
37459;SDS011;23318;50.966;5.284;2023-03-15T09:31:04;11.77;;;6.35;;
37459;SDS011;23318;50.966;5.284;2023-03-15T09:33:31;13.30;;;5.65;;
37459;SDS011;23318;50.966;5.284;2023-03-15T09:35:57;8.88;;;3.55;;
37459;SDS011;23318;50.966;5.284;2023-03-15T09:38:23;10.13;;;3.05;;
37459;SDS011;23318;50.966;5.284;2023-03-15T09:40:49;9.77;;;3.17;;
37459;SDS011;23318;50.966;5.284;2023-03-15T09:46:31;11.95;;;6.60;;
37459;SDS011;23318;50.966;5.284;2023-03-15T09:49:13;10.73;;;5.97;;
37459;SDS011;23318;50.966;5.284;2023-03-15T10:00:13;10.27;;;4.90;;
37459;SDS011;23318;50.966;5.284;2023-03-15T10:02:50;12.27;;;5.05;;
37459;SDS011;23318;50.966;5.284;2023-03-15T10:05:22;12.98;;;4.20;;
37459;SDS011;23318;50.966;5.284;2023-03-15T10:07:56;9.70;;;4.32;;
37459;SDS011;23318;50.966;5.284;2023-03-15T10:10:23;9.20;;;3.88;;
37459;SDS011;23318;50.966;5.284;2023-03-15T10:15:54;10.80;;;3.40;;
37459;SDS011;23318;50.966;5.284;2023-03-15T10:18:45;7.75;;;3.58;;
37459;SDS011;23318;50.966;5.284;2023-03-15T10:21:26;4.90;;;3.05;;
37459;SDS011;23318;50.966;5.284;2023-03-15T10:24:18;4.30;;;1.90;;
37459;SDS011;23318;50.966;5.284;2023-03-15T10:26:48;6.18;;;2.50;;
37459;SDS011;23318;50.966;5.284;2023-03-15T10:29:16;12.48;;;2.88;;
37459;SDS011;23318;50.966;5.284;2023-03-15T10:31:45;6.25;;;2.60;;
37459;SDS011;23318;50.966;5.284;2023-03-15T10:34:12;5.10;;;2.10;;
37459;SDS011;23318;50.966;5.284;2023-03-15T10:36:48;7.13;;;2.45;;
37459;SDS011;23318;50.966;5.284;2023-03-15T10:39:18;5.20;;;2.58;;
37459;SDS011;23318;50.966;5.284;2023-03-15T10:41:46;4.40;;;1.85;;
37459;SDS011;23318;50.966;5.284;2023-03-15T10:44:21;8.40;;;2.90;;
37459;SDS011;23318;50.966;5.284;2023-03-15T10:46:59;7.00;;;2.70;;
37459;SDS011;23318;50.966;5.284;2023-03-15T10:49:37;5.95;;;2.55;;
37459;SDS011;23318;50.966;5.284;2023-03-15T10:52:05;10.13;;;3.00;;
37459;SDS011;23318;50.966;5.284;2023-03-15T10:54:32;7.35;;;2.67;;
37459;SDS011;23318;50.966;5.284;2023-03-15T10:57:05;6.78;;;2.40;;
37459;SDS011;23318;50.966;5.284;2023-03-15T11:00:04;5.80;;;2.30;;
37459;SDS011;23318;50.966;5.284;2023-03-15T11:03:01;4.13;;;1.77;;
37459;SDS011;23318;50.966;5.284;2023-03-15T11:05:40;4.15;;;2.05;;
37459;SDS011;23318;50.966;5.284;2023-03-15T11:08:12;5.40;;;2.05;;
37459;SDS011;23318;50.966;5.284;2023-03-15T11:10:43;3.58;;;1.85;;
37459;SDS011;23318;50.966;5.284;2023-03-15T11:15:36;5.45;;;1.83;;
37459;SDS011;23318;50.966;5.284;2023-03-15T11:18:02;4.90;;;1.63;;
37459;SDS011;23318;50.966;5.284;2023-03-15T11:20:33;7.85;;;2.38;;
37459;SDS011;23318;50.966;5.284;2023-03-15T11:23:05;2.53;;;1.73;;
37459;SDS011;23318;50.966;5.284;2023-03-15T11:25:40;6.55;;;1.83;;
37459;SDS011;23318;50.966;5.284;2023-03-15T11:28:07;5.18;;;2.15;;
37459;SDS011;23318;50.966;5.284;2023-03-15T11:30:47;5.22;;;1.52;;
37459;SDS011;23318;50.966;5.284;2023-03-15T11:33:59;7.57;;;1.95;;
37459;SDS011;23318;50.966;5.284;2023-03-15T11:36:06;3.83;;;1.65;;
37459;SDS011;23318;50.966;5.284;2023-03-15T11:38:40;5.97;;;2.25;;
37459;SDS011;23318;50.966;5.284;2023-03-15T11:41:10;3.15;;;1.60;;
37459;SDS011;23318;50.966;5.284;2023-03-15T11:44:00;5.45;;;1.83;;
37459;SDS011;23318;50.966;5.284;2023-03-15T11:46:32;4.35;;;1.63;;
37459;SDS011;23318;50.966;5.284;2023-03-15T11:49:30;4.30;;;1.70;;
37459;SDS011;23318;50.966;5.284;2023-03-15T11:52:14;3.72;;;1.73;;
37459;SDS011;23318;50.966;5.284;2023-03-15T11:54:41;3.78;;;1.27;;
37459;SDS011;23318;50.966;5.284;2023-03-15T11:59:52;2.42;;;1.38;;
37459;SDS011;23318;50.966;5.284;2023-03-15T12:04:51;4.20;;;1.20;;
37459;SDS011;23318;50.966;5.284;2023-03-15T12:17:34;4.38;;;1.02;;
37459;SDS011;23318;50.966;5.284;2023-03-15T12:22:35;2.47;;;1.30;;
37459;SDS011;23318;50.966;5.284;2023-03-15T12:25:12;8.18;;;1.30;;
37459;SDS011;23318;50.966;5.284;2023-03-15T12:27:47;3.67;;;1.00;;
37459;SDS011;23318;50.966;5.284;2023-03-15T12:30:58;4.40;;;1.20;;
37459;SDS011;23318;50.966;5.284;2023-03-15T12:33:13;3.42;;;0.88;;
37459;SDS011;23318;50.966;5.284;2023-03-15T12:35:42;2.80;;;0.95;;
37459;SDS011;23318;50.966;5.284;2023-03-15T12:38:11;2.97;;;0.90;;
37459;SDS011;23318;50.966;5.284;2023-03-15T12:40:47;3.90;;;1.13;;
37459;SDS011;23318;50.966;5.284;2023-03-15T12:43:51;6.65;;;4.40;;
37459;SDS011;23318;50.966;5.284;2023-03-15T12:49:04;2.85;;;1.13;;
37459;SDS011;23318;50.966;5.284;2023-03-15T12:51:41;3.10;;;0.90;;
37459;SDS011;23318;50.966;5.284;2023-03-15T12:54:10;1.40;;;1.05;;
37459;SDS011;23318;50.966;5.284;2023-03-15T12:56:41;3.70;;;1.30;;
37459;SDS011;23318;50.966;5.284;2023-03-15T12:59:16;4.47;;;1.08;;
37459;SDS011;23318;50.966;5.284;2023-03-15T13:02:18;4.05;;;1.45;;
37459;SDS011;23318;50.966;5.284;2023-03-15T13:04:46;2.78;;;0.90;;
37459;SDS011;23318;50.966;5.284;2023-03-15T13:07:23;2.38;;;1.10;;
37459;SDS011;23318;50.966;5.284;2023-03-15T13:13:18;4.30;;;1.52;;
37459;SDS011;23318;50.966;5.284;2023-03-15T13:24:26;1.33;;;1.10;;
37459;SDS011;23318;50.966;5.284;2023-03-15T13:27:05;3.78;;;1.30;;
37459;SDS011;23318;50.966;5.284;2023-03-15T13:29:32;4.30;;;1.25;;
37459;SDS011;23318;50.966;5.284;2023-03-15T13:32:00;2.28;;;0.93;;
37459;SDS011;23318;50.966;5.284;2023-03-15T13:34:30;2.28;;;1.20;;
37459;SDS011;23318;50.966;5.284;2023-03-15T13:36:58;2.78;;;1.00;;
37459;SDS011;23318;50.966;5.284;2023-03-15T13:41:57;5.57;;;1.02;;
37459;SDS011;23318;50.966;5.284;2023-03-15T13:44:28;5.25;;;1.38;;
37459;SDS011;23318;50.966;5.284;2023-03-15T13:46:55;2.97;;;1.10;;
37459;SDS011;23318;50.966;5.284;2023-03-15T13:49:21;2.50;;;1.00;;
37459;SDS011;23318;50.966;5.284;2023-03-15T13:51:48;2.72;;;1.13;;
37459;SDS011;23318;50.966;5.284;2023-03-15T13:56:55;3.83;;;1.45;;
37459;SDS011;23318;50.966;5.284;2023-03-15T13:59:29;4.40;;;1.42;;
37459;SDS011;23318;50.966;5.284;2023-03-15T14:01:59;4.88;;;1.90;;
37459;SDS011;23318;50.966;5.284;2023-03-15T14:04:27;2.30;;;1.52;;
37459;SDS011;23318;50.966;5.284;2023-03-15T14:10:05;3.33;;;1.23;;
37459;SDS011;23318;50.966;5.284;2023-03-15T14:12:55;2.60;;;1.17;;
37459;SDS011;23318;50.966;5.284;2023-03-15T14:15:33;3.15;;;1.30;;
37459;SDS011;23318;50.966;5.284;2023-03-15T14:20:43;3.13;;;2.03;;
37459;SDS011;23318;50.966;5.284;2023-03-15T14:23:12;2.40;;;1.30;;
37459;SDS011;23318;50.966;5.284;2023-03-15T14:25:40;2.25;;;1.08;;
37459;SDS011;23318;50.966;5.284;2023-03-15T14:28:11;3.45;;;1.35;;
37459;SDS011;23318;50.966;5.284;2023-03-15T14:30:39;3.40;;;1.33;;
37459;SDS011;23318;50.966;5.284;2023-03-15T14:33:06;2.45;;;1.20;;
37459;SDS011;23318;50.966;5.284;2023-03-15T14:35:46;1.58;;;1.00;;
37459;SDS011;23318;50.966;5.284;2023-03-15T14:40:46;1.65;;;1.13;;
37459;SDS011;23318;50.966;5.284;2023-03-15T14:43:13;3.35;;;1.23;;
37459;SDS011;23318;50.966;5.284;2023-03-15T14:45:39;3.97;;;1.35;;
37459;SDS011;23318;50.966;5.284;2023-03-15T14:48:09;4.25;;;1.20;;
37459;SDS011;23318;50.966;5.284;2023-03-15T14:50:41;2.20;;;0.93;;
37459;SDS011;23318;50.966;5.284;2023-03-15T14:53:20;2.42;;;1.00;;
37459;SDS011;23318;50.966;5.284;2023-03-15T14:55:48;1.65;;;0.93;;
37459;SDS011;23318;50.966;5.284;2023-03-15T14:58:18;1.45;;;0.82;;
37459;SDS011;23318;50.966;5.284;2023-03-15T15:00:49;3.08;;;1.08;;
37459;SDS011;23318;50.966;5.284;2023-03-15T15:03:23;2.80;;;1.10;;
37459;SDS011;23318;50.966;5.284;2023-03-15T15:05:56;3.60;;;1.25;;
37459;SDS011;23318;50.966;5.284;2023-03-15T15:08:22;6.07;;;1.40;;
37459;SDS011;23318;50.966;5.284;2023-03-15T15:10:48;4.15;;;1.60;;
37459;SDS011;23318;50.966;5.284;2023-03-15T15:13:17;2.25;;;1.38;;
37459;SDS011;23318;50.966;5.284;2023-03-15T15:15:44;2.95;;;1.42;;
37459;SDS011;23318;50.966;5.284;2023-03-15T15:18:10;4.20;;;1.33;;
37459;SDS011;23318;50.966;5.284;2023-03-15T15:20:36;4.22;;;1.20;;
37459;SDS011;23318;50.966;5.284;2023-03-15T15:23:02;1.92;;;1.20;;
37459;SDS011;23318;50.966;5.284;2023-03-15T15:25:28;4.72;;;1.45;;
37459;SDS011;23318;50.966;5.284;2023-03-15T15:27:55;3.97;;;1.50;;
37459;SDS011;23318;50.966;5.284;2023-03-15T15:30:22;3.58;;;1.45;;
37459;SDS011;23318;50.966;5.284;2023-03-15T15:32:53;1.98;;;1.10;;
37459;SDS011;23318;50.966;5.284;2023-03-15T15:35:18;3.85;;;1.23;;
37459;SDS011;23318;50.966;5.284;2023-03-15T15:37:45;3.47;;;1.30;;
37459;SDS011;23318;50.966;5.284;2023-03-15T15:40:16;2.83;;;1.10;;
37459;SDS011;23318;50.966;5.284;2023-03-15T15:42:53;1.90;;;1.08;;
37459;SDS011;23318;50.966;5.284;2023-03-15T15:45:19;1.90;;;1.02;;
37459;SDS011;23318;50.966;5.284;2023-03-15T15:47:45;3.05;;;1.10;;
37459;SDS011;23318;50.966;5.284;2023-03-15T15:50:12;2.15;;;1.02;;
37459;SDS011;23318;50.966;5.284;2023-03-15T15:52:40;3.47;;;1.02;;
37459;SDS011;23318;50.966;5.284;2023-03-15T15:55:12;4.22;;;1.13;;
37459;SDS011;23318;50.966;5.284;2023-03-15T15:57:40;2.00;;;1.10;;
37459;SDS011;23318;50.966;5.284;2023-03-15T16:00:10;4.60;;;1.23;;
37459;SDS011;23318;50.966;5.284;2023-03-15T16:02:49;6.13;;;1.00;;
37459;SDS011;23318;50.966;5.284;2023-03-15T16:05:16;1.98;;;1.02;;